Time;durP1;ratioP1;P1;durP2;ratioP2;P2;SDS_P1;SDS_P2;PMS_P1;PMS_P2;Temp;Humidity;BMP_temperature;BMP_pressure;BME280_temperature;BME280_humidity;BME280_pressure;Samples;Min_cycle;Max_cycle;Signal;HPM_P1;HPM_P2
2022/06/03 00:08:06;;;;;;;8.45;5.00;;;;;;;13.58;77.49;102053.66;20924266;28;20481;-67
2022/06/03 00:18:53;;;;;;;7.50;4.95;;;;;;;13.45;78.75;102055.31;20921870;28;20401;-67
2022/06/03 00:29:40;;;;;;;8.15;5.07;;;;;;;13.36;78.01;102050.59;20931155;28;20045;-67
2022/06/03 00:40:33;;;;;;;10.02;5.03;;;;;;;13.24;79.00;102034.72;20943829;28;20481;-67
2022/06/03 00:51:23;;;;;;;7.60;5.47;;;;;;;13.16;78.30;102053.47;20933273;28;20060;-67
2022/06/03 01:02:04;;;;;;;17.95;7.18;;;;;;;13.05;79.07;102045.38;20899964;28;20048;-68
2022/06/03 01:12:50;;;;;;;11.60;6.03;;;;;;;13.00;78.69;102042.16;20921984;28;20071;-68
2022/06/03 01:23:24;;;;;;;14.63;6.78;;;;;;;12.92;78.54;102022.56;20908025;28;20046;-69
2022/06/03 01:34:10;;;;;;;10.93;6.35;;;;;;;12.80;78.17;102024.06;20921441;28;20049;-68
2022/06/03 01:44:48;;;;;;;9.45;6.50;;;;;;;12.67;79.12;102015.19;20902136;28;20558;-69
2022/06/03 01:55:27;;;;;;;10.23;6.25;;;;;;;12.62;79.78;102009.38;20937943;28;20470;-69
2022/06/03 02:06:19;;;;;;;12.57;6.97;;;;;;;12.55;79.56;102008.00;20927438;28;20053;-68
2022/06/03 02:17:03;;;;;;;12.10;6.70;;;;;;;12.47;79.37;102008.50;20919897;28;20480;-68
2022/06/03 02:27:42;;;;;;;12.35;7.95;;;;;;;12.39;80.53;102008.03;20910665;28;20047;-69
2022/06/03 02:38:43;;;;;;;12.20;8.13;;;;;;;12.32;81.01;101994.44;20928954;28;20053;-69
2022/06/03 02:49:37;;;;;;;12.32;8.57;;;;;;;12.22;81.34;102000.28;20912695;28;20568;-69
2022/06/03 03:00:20;;;;;;;16.45;8.07;;;;;;;12.19;81.51;101998.66;20921390;28;20040;-68
2022/06/03 03:10:54;;;;;;;11.45;7.82;;;;;;;12.15;80.37;102004.13;20917865;28;20040;-69
2022/06/03 03:21:53;;;;;;;13.25;8.05;;;;;;;12.08;82.69;102011.44;20894205;28;20044;-69
2022/06/03 03:32:46;;;;;;;14.23;7.93;;;;;;;12.02;81.58;102021.38;20904302;28;20124;-68
2022/06/03 03:43:52;;;;;;;13.98;7.50;;;;;;;11.99;82.64;102018.91;20914851;28;20038;-69
2022/06/03 03:54:16;;;;;;;10.55;7.30;;;;;;;11.89;82.06;102009.84;20880744;28;20049;-69
2022/06/03 04:04:53;;;;;;;9.40;6.03;;;;;;;11.92;82.52;102007.91;20914017;28;20049;-69
2022/06/03 04:15:42;;;;;;;11.68;5.88;;;;;;;12.00;82.45;102012.75;20918152;28;20625;-68
2022/06/03 04:26:22;;;;;;;7.63;5.35;;;;;;;11.93;83.24;102021.84;20929302;28;20048;-71
2022/06/03 04:37:03;;;;;;;8.20;5.32;;;;;;;11.98;83.25;102014.59;20922081;28;20041;-70
2022/06/03 04:47:27;;;;;;;11.63;5.15;;;;;;;12.13;82.37;102016.41;20923715;28;20040;-68
2022/06/03 04:57:49;;;;;;;9.23;5.68;;;;;;;12.13;82.26;102008.56;20904388;28;20400;-69
2022/06/03 05:08:54;;;;;;;14.02;6.60;;;;;;;12.34;83.62;102002.25;20924430;28;20053;-68
2022/06/03 05:19:30;;;;;;;8.20;5.43;;;;;;;12.46;82.48;101988.50;20903712;28;20055;-68
2022/06/03 05:30:11;;;;;;;10.80;5.55;;;;;;;12.69;81.79;101981.09;20922236;28;20052;-69
2022/06/03 05:40:41;;;;;;;10.23;5.35;;;;;;;12.92;80.08;101992.03;20911099;28;20044;-68
2022/06/03 05:51:27;;;;;;;7.97;4.85;;;;;;;13.16;79.18;102005.50;20921934;28;20045;-69
2022/06/03 06:02:26;;;;;;;6.85;4.80;;;;;;;13.39;80.53;102000.63;20925346;28;20045;-69
2022/06/03 06:13:20;;;;;;;10.45;5.22;;;;;;;13.69;79.12;102001.47;20911221;28;20044;-69
2022/06/03 06:23:45;;;;;;;9.45;5.75;;;;;;;13.97;79.66;101978.78;20920425;28;20055;-69
2022/06/03 06:34:13;;;;;;;11.60;6.47;;;;;;;14.23;78.57;101972.00;20902114;28;20195;-69
2022/06/03 06:44:37;;;;;;;9.43;5.80;;;;;;;14.45;76.77;101979.28;20929710;28;20088;-66
2022/06/03 06:55:17;;;;;;;9.73;4.93;;;;;;;14.78;75.48;101987.69;20910477;28;20045;-69
2022/06/03 07:05:52;;;;;;;9.27;4.70;;;;;;;15.14;75.41;101984.47;20907981;28;20048;-69
2022/06/03 07:27:28;;;;;;;5.82;3.10;;;;;;;15.94;70.75;101980.78;20940003;28;20758;-69
2022/06/03 07:38:01;;;;;;;8.00;3.47;;;;;;;16.19;70.81;101968.47;20940414;28;20152;-69
2022/06/03 07:48:26;;;;;;;6.18;2.95;;;;;;;16.48;69.48;101967.31;20937310;28;20405;-69
2022/06/03 07:58:58;;;;;;;4.93;2.42;;;;;;;16.63;69.67;101968.84;20926328;28;20052;-70
2022/06/03 08:20:09;;;;;;;4.38;2.58;;;;;;;17.25;69.21;101958.06;20942824;28;20276;-70
2022/06/03 08:30:30;;;;;;;5.28;2.33;;;;;;;17.46;69.25;101961.78;20914605;28;20068;-69
2022/06/03 08:41:22;;;;;;;6.30;3.03;;;;;;;17.73;67.85;101971.06;20916183;28;20079;-69
2022/06/03 08:51:52;;;;;;;5.32;2.53;;;;;;;18.02;68.46;101959.09;20912987;28;20048;-70
2022/06/03 09:02:23;;;;;;;7.53;2.63;;;;;;;18.27;68.14;101958.91;20928962;28;20040;-70
2022/06/03 09:12:52;;;;;;;2.80;2.10;;;;;;;18.44;67.40;101947.84;20899398;28;20528;-70
2022/06/03 09:23:18;;;;;;;6.20;2.33;;;;;;;18.83;67.24;101942.88;20924588;28;20043;-68
2022/06/03 09:33:44;;;;;;;3.80;2.22;;;;;;;19.12;65.97;101930.78;20924513;28;20637;-68
2022/06/03 09:44:13;;;;;;;1.90;1.60;;;;;;;19.40;65.50;101925.75;20910331;28;20131;-68
2022/06/03 09:54:39;;;;;;;3.25;1.40;;;;;;;19.73;65.18;101927.34;20912515;28;20421;-68
2022/06/03 10:05:05;;;;;;;3.17;0.90;;;;;;;19.94;56.60;101917.56;20923502;28;20558;-67
2022/06/03 10:15:42;;;;;;;3.40;1.02;;;;;;;20.38;57.80;101903.97;20924384;28;20059;-68
2022/06/03 10:26:05;;;;;;;2.75;1.10;;;;;;;20.71;63.77;101912.41;20900646;28;20473;-69
2022/06/03 10:36:31;;;;;;;2.42;1.17;;;;;;;21.08;63.05;101908.16;20905701;28;20040;-68
2022/06/03 10:46:59;;;;;;;2.35;1.23;;;;;;;21.51;62.53;101906.72;20908074;28;20051;-68
2022/06/03 11:08:10;;;;;;;1.48;1.15;;;;;;;21.79;60.04;101895.22;20897461;28;20037;-67
2022/06/03 11:18:34;;;;;;;1.77;1.38;;;;;;;22.09;62.84;101876.38;20897541;28;20126;-68
2022/06/03 11:29:04;;;;;;;3.70;1.30;;;;;;;22.51;55.85;101860.66;20912729;28;20056;-68
2022/06/03 11:39:38;;;;;;;4.57;1.00;;;;;;;22.71;51.91;101840.06;20913669;28;20511;-68
2022/06/03 11:49:59;;;;;;;2.35;1.30;;;;;;;22.91;60.81;101823.78;20913451;28;20056;-68
2022/06/03 12:00:24;;;;;;;2.45;1.17;;;;;;;22.94;60.41;101825.28;20897364;28;20079;-68
2022/06/03 12:10:55;;;;;;;2.25;1.00;;;;;;;22.63;55.08;101814.22;20912316;28;20048;-70
2022/06/03 12:21:30;;;;;;;1.25;0.90;;;;;;;22.15;52.49;101796.06;20906451;28;20057;-68
2022/06/03 12:31:51;;;;;;;2.50;1.00;;;;;;;21.99;64.18;101799.41;20923954;28;20478;-68
2022/06/03 12:42:28;;;;;;;1.25;1.08;;;;;;;21.62;50.28;101779.19;20913822;28;20037;-69
2022/06/03 12:52:57;;;;;;;1.42;1.02;;;;;;;21.72;60.68;101778.16;20911878;28;20378;-69
2022/06/03 13:03:25;;;;;;;4.13;1.10;;;;;;;21.64;56.32;101774.56;20941356;28;20045;-70
2022/06/03 13:13:54;;;;;;;3.03;0.90;;;;;;;21.51;55.96;101782.81;20918558;28;20055;-70
2022/06/03 13:24:26;;;;;;;1.20;1.00;;;;;;;21.50;52.22;101777.66;20924881;28;20040;-69
2022/06/03 13:35:06;;;;;;;1.30;0.80;;;;;;;21.44;49.93;101771.13;20897992;28;20045;-68
2022/06/03 13:45:44;;;;;;;4.00;0.80;;;;;;;21.57;51.16;101765.50;20909704;28;20047;-70
2022/06/03 13:56:08;;;;;;;1.52;0.82;;;;;;;21.69;58.63;101769.63;20961684;28;20036;-69
2022/06/03 14:06:39;;;;;;;1.88;0.90;;;;;;;21.73;61.24;101771.00;20914029;28;20075;-69
2022/06/03 14:17:30;;;;;;;2.78;1.10;;;;;;;21.43;57.19;101776.56;20906195;28;20068;-70
2022/06/03 14:28:35;;;;;;;1.90;1.17;;;;;;;21.39;55.53;101767.22;20924170;28;20045;-69
2022/06/03 14:39:06;;;;;;;3.03;1.00;;;;;;;21.05;55.38;101758.09;20914938;28;20054;-69
2022/06/03 14:49:52;;;;;;;3.60;1.10;;;;;;;20.92;55.24;101773.50;20916231;28;20052;-69
2022/06/03 15:00:21;;;;;;;2.40;1.00;;;;;;;20.86;58.42;101776.69;20900823;28;20362;-67
2022/06/03 15:10:58;;;;;;;1.70;0.90;;;;;;;20.79;56.90;101767.66;20922884;28;20047;-67
2022/06/03 15:21:32;;;;;;;2.10;0.70;;;;;;;20.62;53.85;101759.50;20932027;28;20055;-67
2022/06/03 15:31:55;;;;;;;3.28;1.10;;;;;;;20.53;59.21;101763.00;20906714;28;20585;-67
2022/06/03 15:42:25;;;;;;;4.35;0.90;;;;;;;20.60;58.62;101767.63;20912494;28;20040;-67
2022/06/03 15:52:50;;;;;;;0.73;0.60;;;;;;;20.80;58.87;101760.50;20913464;28;20088;-69
2022/06/03 16:03:22;;;;;;;2.97;0.80;;;;;;;20.96;54.79;101760.78;20924101;28;20101;-67
2022/06/03 16:14:02;;;;;;;3.03;1.00;;;;;;;21.36;52.45;101746.28;20950526;28;20454;-67
2022/06/03 16:24:38;;;;;;;2.97;1.00;;;;;;;21.59;52.86;101752.91;20924713;28;20041;-67
2022/06/03 16:35:16;;;;;;;2.72;1.13;;;;;;;21.87;52.83;101741.31;20938742;28;20045;-67
2022/06/03 16:46:05;;;;;;;3.83;1.00;;;;;;;22.02;55.40;101755.75;20914770;28;20138;-68
2022/06/03 16:56:32;;;;;;;3.00;0.85;;;;;;;21.76;62.05;101768.06;20912078;28;20122;-68
2022/06/03 17:06:58;;;;;;;2.22;1.10;;;;;;;21.33;62.45;101765.97;20923585;28;20037;-68
2022/06/03 17:17:23;;;;;;;4.38;1.00;;;;;;;20.75;64.77;101760.91;20922809;28;20665;-68
2022/06/03 17:27:54;;;;;;;2.30;1.35;;;;;;;20.55;64.24;101766.38;20920344;28;20367;-68
2022/06/03 17:38:57;;;;;;;3.03;1.20;;;;;;;20.33;57.53;101763.16;20910243;28;20063;-67
2022/06/03 17:49:45;;;;;;;3.60;1.20;;;;;;;20.13;59.89;101767.59;20929822;28;20045;-68
2022/06/03 18:00:10;;;;;;;2.53;1.20;;;;;;;20.00;64.09;101782.91;20915280;28;20038;-70
2022/06/03 18:10:40;;;;;;;2.60;1.35;;;;;;;19.67;58.41;101779.66;20919985;28;20040;-68
2022/06/03 18:21:36;;;;;;;2.20;0.87;;;;;;;19.33;55.42;101775.63;20922795;28;20052;-67
2022/06/03 18:32:07;;;;;;;3.10;1.15;;;;;;;19.12;60.08;101788.03;20905882;28;20619;-66
2022/06/03 18:43:02;;;;;;;3.05;1.45;;;;;;;18.91;59.40;101781.88;20920838;28;20596;-66
2022/06/03 18:53:32;;;;;;;4.30;1.45;;;;;;;18.63;63.28;101785.13;20915676;28;20136;-66
2022/06/03 19:04:21;;;;;;;4.60;1.43;;;;;;;18.35;63.43;101791.97;20934049;28;20033;-67
2022/06/03 19:15:09;;;;;;;5.22;1.50;;;;;;;18.11;64.14;101796.56;20912865;28;20056;-68
2022/06/03 19:25:37;;;;;;;3.95;1.50;;;;;;;17.85;65.77;101800.44;20936479;28;20040;-68
2022/06/03 19:36:25;;;;;;;5.43;1.50;;;;;;;17.62;66.62;101809.31;20922371;28;20044;-68
2022/06/03 19:46:55;;;;;;;6.70;2.00;;;;;;;17.42;67.32;101807.38;20931277;28;20036;-70
2022/06/03 19:57:41;;;;;;;5.00;1.90;;;;;;;17.22;68.40;101813.31;20923699;28;20400;-70
2022/06/03 20:08:16;;;;;;;4.32;1.83;;;;;;;17.04;69.44;101827.03;20955003;28;20044;-69
2022/06/03 20:18:52;;;;;;;5.00;1.88;;;;;;;16.85;70.18;101840.75;20921532;28;20053;-70
2022/06/03 20:29:29;;;;;;;7.53;2.25;;;;;;;16.74;71.11;101845.97;20917792;28;20052;-69
2022/06/03 20:40:27;;;;;;;5.05;2.17;;;;;;;16.53;72.54;101858.09;20930106;28;20144;-69
2022/06/03 20:51:04;;;;;;;4.95;2.50;;;;;;;16.30;73.64;101865.09;20930500;28;20053;-69
2022/06/03 21:01:33;;;;;;;5.65;2.70;;;;;;;16.14;73.54;101867.13;20912917;28;20049;-69
2022/06/03 21:22:39;;;;;;;8.23;2.90;;;;;;;15.85;73.68;101873.59;20918023;28;20052;-69
2022/06/03 21:33:18;;;;;;;4.80;2.95;;;;;;;15.75;75.13;101883.06;20928215;28;20387;-69
2022/06/03 21:43:58;;;;;;;7.50;3.15;;;;;;;15.63;76.76;101894.41;20917505;28;20041;-69
2022/06/03 21:54:36;;;;;;;6.75;3.30;;;;;;;15.55;76.48;101896.75;20907353;28;20409;-69
2022/06/03 22:04:59;;;;;;;5.72;2.92;;;;;;;15.41;76.06;101911.75;20923911;28;20044;-69
2022/06/03 22:15:25;;;;;;;8.68;3.78;;;;;;;15.29;75.70;101916.03;20918979;28;20440;-69
2022/06/03 22:25:58;;;;;;;10.18;3.00;;;;;;;15.13;76.93;101922.38;20918795;28;20045;-69
2022/06/03 22:36:43;;;;;;;11.15;3.00;;;;;;;15.06;75.77;101924.56;20914439;28;20044;-68
2022/06/03 22:47:04;;;;;;;5.72;3.22;;;;;;;14.98;76.14;101931.25;20915110;28;20366;-68
2022/06/03 22:57:26;;;;;;;;;;;;;;;14.82;79.73;101941.91;20902102;28;20060;-68
2022/06/03 23:07:48;;;;;;;;;;;;;;;14.71;79.48;101949.63;20919764;28;19931;-69
2022/06/03 23:18:09;;;;;;;11.52;3.92;;;;;;;14.53;76.33;101935.06;20925652;28;19925;-68
2022/06/03 23:28:31;;;;;;;;;;;;;;;14.48;79.91;101941.53;20911249;28;20048;-68
2022/06/03 23:38:53;;;;;;;10.73;3.70;;;;;;;14.35;76.36;101945.84;20903714;28;19928;-69
2022/06/03 23:49:17;;;;;;;8.82;3.75;;;;;;;14.27;76.25;101952.50;20913681;28;20394;-69
2022/06/03 23:59:38;;;;;;;10.70;4.38;;;;;;;14.09;77.39;101940.50;20900954;28;20424;-68
